Time;durP1;ratioP1;P1;durP2;ratioP2;P2;SDS_P1;SDS_P2;PMS_P1;PMS_P2;Temp;Humidity;BMP_temperature;BMP_pressure;BME280_temperature;BME280_humidity;BME280_pressure;Samples;Min_cycle;Max_cycle;Signal;HPM_P1;HPM_P2
2021/12/06 00:02:14;;;;;;;21.30;11.03;;;4.00;99.90;;;;;;5074469;28;20181;-67
2021/12/06 00:04:40;;;;;;;31.40;12.63;;;4.00;99.90;;;;;;5080555;28;20229;-67
2021/12/06 00:07:17;;;;;;;26.80;11.40;;;3.90;99.90;;;;;;5073405;28;20184;-66
2021/12/06 00:09:43;;;;;;;17.27;8.97;;;4.00;99.90;;;;;;5080187;28;20177;-71
2021/12/06 00:12:10;;;;;;;24.90;11.53;;;4.00;99.90;;;;;;5081954;28;20180;-67
2021/12/06 00:14:39;;;;;;;28.13;12.17;;;4.00;99.90;;;;;;5077719;28;20277;-67
2021/12/06 00:17:09;;;;;;;27.37;11.67;;;4.00;99.90;;;;;;5083049;28;20263;-67
2021/12/06 00:19:36;;;;;;;21.70;10.10;;;3.90;99.90;;;;;;5071259;28;20258;-67
2021/12/06 00:22:06;;;;;;;21.60;11.40;;;3.90;99.90;;;;;;5078167;28;20186;-65
2021/12/06 00:24:32;;;;;;;22.23;10.60;;;4.00;99.90;;;;;;5082145;28;20182;-66
2021/12/06 00:26:58;;;;;;;25.20;11.87;;;4.00;99.90;;;;;;5077543;28;20197;-67
2021/12/06 00:29:24;;;;;;;23.70;11.43;;;3.80;99.90;;;;;;5081361;28;20175;-67
2021/12/06 00:31:50;;;;;;;18.00;10.13;;;3.80;99.90;;;;;;5087234;28;20194;-66
2021/12/06 00:34:18;;;;;;;30.80;12.43;;;3.90;99.90;;;;;;5086884;28;20246;-66
2021/12/06 00:36:53;;;;;;;28.83;11.47;;;4.00;99.90;;;;;;5066255;28;20530;-67
2021/12/06 00:39:20;;;;;;;20.30;10.93;;;3.90;99.90;;;;;;5077282;28;20509;-67
2021/12/06 00:41:46;;;;;;;24.20;11.07;;;3.90;99.90;;;;;;5075019;28;20283;-67
2021/12/06 00:44:12;;;;;;;23.07;11.33;;;3.80;99.90;;;;;;5073184;28;20608;-66
2021/12/06 00:46:38;;;;;;;22.43;11.77;;;3.90;99.90;;;;;;5076881;28;20215;-67
2021/12/06 00:49:06;;;;;;;19.47;10.70;;;3.80;99.90;;;;;;5072726;28;20179;-65
2021/12/06 00:51:32;;;;;;;24.93;11.73;;;3.90;99.90;;;;;;5076503;28;20212;-66
2021/12/06 00:53:58;;;;;;;22.97;11.37;;;3.80;99.90;;;;;;5072999;28;20188;-65
2021/12/06 00:56:24;;;;;;;22.87;11.00;;;3.80;99.90;;;;;;5081455;28;20511;-66
2021/12/06 00:58:56;;;;;;;23.73;11.33;;;3.80;99.90;;;;;;5076282;28;20187;-65
2021/12/06 01:01:22;;;;;;;23.87;10.43;;;3.70;99.90;;;;;;5071564;28;20532;-66
2021/12/06 01:03:48;;;;;;;25.67;11.43;;;3.60;99.90;;;;;;5079842;28;20186;-66
2021/12/06 01:06:14;;;;;;;19.90;10.33;;;3.70;99.90;;;;;;5088319;28;20232;-64
2021/12/06 01:08:40;;;;;;;26.80;11.57;;;3.50;99.90;;;;;;5085657;28;20183;-67
2021/12/06 01:11:08;;;;;;;22.37;10.60;;;3.70;99.90;;;;;;5072482;28;20271;-65
2021/12/06 01:13:34;;;;;;;20.00;10.77;;;3.60;99.90;;;;;;5077597;28;20275;-71
2021/12/06 01:16:00;;;;;;;25.37;12.33;;;3.60;99.90;;;;;;5085880;28;20543;-65
2021/12/06 01:18:26;;;;;;;22.87;10.43;;;3.60;99.90;;;;;;5073588;28;20271;-65
2021/12/06 01:21:04;;;;;;;22.40;9.87;;;3.60;99.90;;;;;;5088648;28;20213;-66
2021/12/06 01:23:43;;;;;;;17.47;10.23;;;3.60;99.90;;;;;;5095533;28;20164;-64
2021/12/06 01:39:10;;;;;;;24.17;10.97;;;3.70;99.90;;;;;;5074724;28;20235;-66
2021/12/06 01:39:44;;;;;;;27.03;13.03;;;3.50;99.90;;;;;;5077571;28;20180;-68
2021/12/06 01:42:10;;;;;;;29.53;13.00;;;3.50;99.90;;;;;;5075989;28;20181;-66
2021/12/06 01:44:42;;;;;;;31.83;13.00;;;3.50;99.90;;;;;;5084353;28;20177;-65
2021/12/06 01:47:17;;;;;;;33.03;14.30;;;3.50;99.90;;;;;;5077190;28;20184;-67
2021/12/06 01:49:46;;;;;;;37.00;14.23;;;3.40;99.90;;;;;;5080479;28;20238;-66
2021/12/06 01:52:25;;;;;;;32.27;13.23;;;3.40;99.90;;;;;;5089109;28;20271;-68
2021/12/06 01:54:53;;;;;;;30.50;14.70;;;3.30;99.90;;;;;;5091429;28;20187;-71
2021/12/06 01:57:18;;;;;;;33.27;14.47;;;3.20;99.90;;;;;;5084715;28;20249;-66
2021/12/06 01:59:45;;;;;;;32.20;14.63;;;3.00;99.90;;;;;;5059877;28;20195;-65
2021/12/06 02:02:11;;;;;;;32.53;13.57;;;3.00;99.90;;;;;;5071929;28;20273;-65
2021/12/06 02:04:39;;;;;;;33.73;16.47;;;3.00;99.90;;;;;;5077774;28;20275;-65
2021/12/06 02:07:07;;;;;;;37.53;15.47;;;3.10;99.90;;;;;;5077729;28;20250;-67
2021/12/06 02:09:34;;;;;;;32.00;15.50;;;3.10;99.90;;;;;;5075302;28;20244;-66
2021/12/06 02:12:02;;;;;;;39.23;15.17;;;3.10;99.90;;;;;;5094237;28;20179;-65
2021/12/06 02:14:55;;;;;;;36.50;16.40;;;3.10;99.90;;;;;;5072328;28;20184;-66
2021/12/06 02:17:27;;;;;;;34.30;15.40;;;3.10;99.90;;;;;;5071584;28;20182;-66
2021/12/06 02:20:00;;;;;;;40.60;17.23;;;3.10;99.90;;;;;;5071561;28;20213;-66
2021/12/06 02:22:28;;;;;;;41.77;16.70;;;3.00;99.90;;;;;;5070259;28;20209;-66
2021/12/06 02:24:56;;;;;;;35.43;16.27;;;2.90;99.90;;;;;;5067720;28;20201;-65
2021/12/06 02:27:26;;;;;;;29.03;14.00;;;2.70;99.90;;;;;;5074566;28;20184;-66
2021/12/06 02:29:53;;;;;;;37.80;15.50;;;2.60;99.90;;;;;;5070811;28;20278;-65
2021/12/06 02:32:20;;;;;;;40.47;17.13;;;2.60;99.90;;;;;;5084906;28;20187;-65
2021/12/06 02:34:51;;;;;;;38.23;15.77;;;2.60;99.90;;;;;;5071726;28;20253;-65
2021/12/06 02:37:21;;;;;;;35.53;15.33;;;2.60;99.90;;;;;;5073973;28;20221;-65
2021/12/06 02:39:47;;;;;;;41.97;15.80;;;2.60;99.90;;;;;;5071009;28;20541;-65
2021/12/06 02:42:15;;;;;;;38.23;16.00;;;2.60;99.90;;;;;;5052537;28;20163;-64
2021/12/06 02:44:42;;;;;;;38.30;16.47;;;2.60;99.90;;;;;;5082205;28;20270;-65
2021/12/06 02:47:08;;;;;;;33.17;15.33;;;2.60;99.90;;;;;;5070723;28;20246;-66
2021/12/06 02:49:34;;;;;;;32.83;15.63;;;2.60;99.90;;;;;;5072568;28;20684;-66
2021/12/06 02:52:01;;;;;;;36.20;16.63;;;2.60;99.90;;;;;;5073370;28;20195;-66
2021/12/06 02:54:28;;;;;;;38.40;15.90;;;2.70;99.90;;;;;;5079494;28;20179;-69
2021/12/06 02:57:07;;;;;;;32.47;15.93;;;2.70;99.90;;;;;;5068054;28;20187;-66
2021/12/06 02:59:33;;;;;;;40.87;17.90;;;2.60;99.90;;;;;;5072193;28;20190;-65
2021/12/06 03:02:02;;;;;;;36.20;16.13;;;2.40;99.90;;;;;;5070291;28;20183;-67
2021/12/06 03:04:28;;;;;;;37.43;16.57;;;2.50;99.90;;;;;;5065137;28;20245;-65
2021/12/06 03:06:55;;;;;;;34.40;16.97;;;2.50;99.90;;;;;;5076506;28;20622;-65
2021/12/06 03:09:29;;;;;;;33.17;14.93;;;2.40;99.90;;;;;;5077931;28;20570;-65
2021/12/06 03:12:25;;;;;;;35.67;16.50;;;2.40;99.90;;;;;;5071773;28;20191;-65
2021/12/06 03:14:56;;;;;;;33.80;15.03;;;2.40;99.90;;;;;;5055549;28;20202;-65
2021/12/06 03:17:24;;;;;;;42.23;16.47;;;2.40;99.90;;;;;;5092119;28;20556;-64
2021/12/06 03:19:51;;;;;;;38.83;16.53;;;2.40;99.90;;;;;;5078419;28;20273;-65
2021/12/06 03:22:17;;;;;;;39.53;15.33;;;2.40;99.90;;;;;;5073160;28;20183;-64
2021/12/06 03:24:44;;;;;;;34.97;14.70;;;2.50;99.90;;;;;;5070505;28;20686;-65
2021/12/06 03:27:11;;;;;;;32.33;14.53;;;2.50;99.90;;;;;;5074575;28;20282;-65
2021/12/06 03:29:38;;;;;;;35.57;14.93;;;2.60;99.90;;;;;;5075263;28;20603;-66
2021/12/06 03:32:05;;;;;;;35.93;13.37;;;2.50;99.90;;;;;;5070776;28;20616;-64
2021/12/06 03:34:32;;;;;;;38.50;15.53;;;2.50;99.90;;;;;;5092985;28;20230;-66
2021/12/06 03:37:01;;;;;;;32.13;14.83;;;2.50;99.90;;;;;;5093266;28;20280;-65
2021/12/06 03:39:31;;;;;;;33.37;15.17;;;2.50;99.90;;;;;;5096577;28;20586;-64
2021/12/06 03:42:00;;;;;;;29.53;14.40;;;2.50;99.90;;;;;;5097096;28;20195;-63
2021/12/06 03:44:26;;;;;;;33.03;15.73;;;2.40;99.90;;;;;;5097220;28;20170;-63
2021/12/06 03:46:56;;;;;;;33.67;14.90;;;2.40;99.90;;;;;;5097268;28;20195;-64
2021/12/06 03:49:22;;;;;;;32.47;14.33;;;2.40;99.90;;;;;;5097125;28;20163;-64
2021/12/06 03:51:49;;;;;;;31.00;14.93;;;2.40;99.90;;;;;;5096954;28;20178;-64
2021/12/06 03:54:18;;;;;;;31.00;16.47;;;2.40;99.90;;;;;;5096995;28;20283;-64
2021/12/06 03:56:44;;;;;;;30.60;15.53;;;2.40;99.90;;;;;;5096561;28;20640;-64
2021/12/06 03:59:11;;;;;;;29.57;15.57;;;2.40;99.90;;;;;;5096859;28;20250;-63
2021/12/06 04:01:37;;;;;;;33.43;15.37;;;2.40;99.90;;;;;;5097044;28;20160;-64
2021/12/06 04:04:05;;;;;;;31.00;15.53;;;2.20;99.90;;;;;;5096751;28;20167;-64
2021/12/06 04:06:32;;;;;;;30.17;15.33;;;2.20;99.90;;;;;;5097332;28;20209;-64
2021/12/06 04:08:58;;;;;;;31.93;15.90;;;2.30;99.90;;;;;;5096487;28;20167;-65
2021/12/06 04:11:24;;;;;;;34.00;15.23;;;2.30;99.90;;;;;;5096486;28;20621;-64
2021/12/06 04:13:50;;;;;;;29.70;15.43;;;2.30;99.90;;;;;;5080181;28;20489;-65
2021/12/06 04:16:16;;;;;;;32.37;15.83;;;2.40;99.90;;;;;;5109380;28;20242;-64
2021/12/06 04:18:42;;;;;;;31.87;16.03;;;2.30;99.90;;;;;;5104508;28;20170;-64
2021/12/06 04:21:09;;;;;;;31.80;16.00;;;2.30;99.90;;;;;;5097499;28;20167;-64
2021/12/06 04:23:36;;;;;;;26.93;15.17;;;2.30;99.90;;;;;;5096394;28;20599;-64
2021/12/06 04:26:02;;;;;;;31.90;16.33;;;2.20;99.90;;;;;;5096446;28;20284;-65
2021/12/06 04:28:30;;;;;;;31.50;16.60;;;2.30;99.90;;;;;;5096339;28;20171;-66
2021/12/06 04:30:57;;;;;;;32.60;16.63;;;2.30;99.90;;;;;;5096448;28;20221;-63
2021/12/06 04:33:22;;;;;;;31.13;16.07;;;2.30;99.90;;;;;;5096461;28;20257;-65
2021/12/06 04:35:48;;;;;;;31.80;15.57;;;2.30;99.90;;;;;;5114617;28;20317;-65
2021/12/06 04:38:15;;;;;;;29.97;15.43;;;2.40;99.90;;;;;;5116243;28;20621;-64
2021/12/06 04:40:41;;;;;;;32.67;15.70;;;2.30;99.90;;;;;;5116745;28;20194;-64
2021/12/06 04:43:09;;;;;;;31.27;15.63;;;2.20;99.90;;;;;;5097783;28;20637;-65
2021/12/06 04:45:36;;;;;;;33.40;16.03;;;2.30;99.90;;;;;;5116372;28;20194;-65
2021/12/06 04:48:03;;;;;;;30.60;15.07;;;2.20;99.90;;;;;;5116410;28;20200;-65
2021/12/06 04:50:32;;;;;;;29.73;15.63;;;2.20;99.90;;;;;;5115198;28;20192;-65
2021/12/06 04:53:02;;;;;;;30.40;15.23;;;2.20;99.90;;;;;;5116319;28;20182;-66
2021/12/06 04:55:31;;;;;;;38.83;17.83;;;2.30;99.90;;;;;;5116441;28;20224;-67
2021/12/06 04:57:57;;;;;;;33.33;16.53;;;2.20;99.90;;;;;;5116624;28;20166;-65
2021/12/06 05:00:46;;;;;;;32.70;16.30;;;2.20;99.90;;;;;;5116309;28;20212;-65
2021/12/06 05:03:12;;;;;;;34.73;16.47;;;2.20;99.90;;;;;;5112004;28;20219;-66
2021/12/06 05:05:45;;;;;;;30.93;15.20;;;2.10;99.90;;;;;;5116069;28;20202;-66
2021/12/06 05:08:16;;;;;;;32.23;15.93;;;2.10;99.90;;;;;;5107219;28;20194;-66
2021/12/06 05:10:43;;;;;;;33.73;16.40;;;2.20;99.90;;;;;;5095567;28;20159;-64
2021/12/06 05:13:09;;;;;;;34.87;15.73;;;2.20;99.90;;;;;;5095784;28;20589;-67
2021/12/06 05:15:35;;;;;;;34.73;16.97;;;2.20;99.90;;;;;;5077164;28;20202;-64
2021/12/06 05:18:00;;;;;;;26.70;15.47;;;2.10;99.90;;;;;;5095772;28;20170;-65
2021/12/06 05:20:27;;;;;;;33.07;15.30;;;2.00;99.90;;;;;;5091030;28;20499;-65
2021/12/06 05:22:53;;;;;;;31.60;15.90;;;2.10;99.90;;;;;;5095313;28;20543;-65
2021/12/06 05:25:22;;;;;;;29.83;15.93;;;2.20;99.90;;;;;;5076925;28;20283;-65
2021/12/06 05:27:49;;;;;;;30.50;15.17;;;2.20;99.90;;;;;;5095120;28;20172;-65
2021/12/06 05:30:16;;;;;;;30.00;14.43;;;2.20;99.90;;;;;;5095059;28;20160;-66
2021/12/06 05:32:43;;;;;;;27.63;15.53;;;2.00;99.90;;;;;;5095588;28;20206;-64
2021/12/06 05:35:11;;;;;;;30.77;15.00;;;2.10;99.90;;;;;;5094828;28;20260;-65
2021/12/06 05:37:42;;;;;;;34.73;16.23;;;2.10;99.90;;;;;;5094930;28;20205;-64
2021/12/06 05:40:13;;;;;;;28.97;14.93;;;2.20;99.90;;;;;;5094855;28;20163;-65
2021/12/06 05:42:39;;;;;;;32.03;14.93;;;2.10;99.90;;;;;;5095310;28;20170;-65
2021/12/06 05:45:06;;;;;;;29.13;15.20;;;2.10;99.90;;;;;;5094905;28;20190;-65
2021/12/06 05:47:32;;;;;;;25.17;14.67;;;2.10;99.90;;;;;;5097102;28;20182;-65
2021/12/06 05:49:58;;;;;;;27.83;15.10;;;2.10;99.90;;;;;;5093182;28;20585;-65
2021/12/06 05:52:23;;;;;;;28.17;14.87;;;2.20;99.90;;;;;;5094684;28;20541;-66
2021/12/06 05:54:49;;;;;;;31.70;16.37;;;2.20;99.90;;;;;;5092080;28;20240;-66
2021/12/06 05:57:15;;;;;;;28.93;15.53;;;2.20;99.90;;;;;;5094357;28;20167;-65
2021/12/06 05:59:42;;;;;;;29.87;15.43;;;2.20;99.90;;;;;;5095920;28;20266;-64
2021/12/06 06:02:09;;;;;;;25.00;14.33;;;2.10;99.90;;;;;;5114920;28;20253;-66
2021/12/06 06:04:35;;;;;;;31.37;16.20;;;2.10;99.90;;;;;;5114524;28;20203;-65
2021/12/06 06:07:01;;;;;;;26.53;14.93;;;2.10;99.90;;;;;;5098837;28;21063;-66
2021/12/06 06:09:27;;;;;;;34.90;15.43;;;2.10;99.90;;;;;;5074031;28;20178;-65
2021/12/06 06:11:52;;;;;;;33.47;16.23;;;2.00;99.90;;;;;;5079879;28;20193;-64
2021/12/06 06:14:18;;;;;;;24.97;15.00;;;2.00;99.90;;;;;;5098619;28;20261;-66
2021/12/06 06:16:49;;;;;;;31.63;16.13;;;2.10;99.90;;;;;;5095922;28;20539;-67
2021/12/06 06:19:18;;;;;;;28.50;15.03;;;2.20;99.90;;;;;;5095313;28;20626;-66
2021/12/06 06:21:45;;;;;;;31.67;15.40;;;2.20;99.90;;;;;;5099957;28;20170;-68
2021/12/06 06:24:10;;;;;;;32.07;15.17;;;2.20;99.90;;;;;;5097268;28;20214;-67
2021/12/06 06:26:36;;;;;;;27.67;15.60;;;2.00;99.90;;;;;;5097694;28;20238;-65
2021/12/06 06:29:02;;;;;;;27.70;14.53;;;2.10;99.90;;;;;;5094693;28;20229;-64
2021/12/06 06:31:28;;;;;;;27.70;15.30;;;2.10;99.90;;;;;;5097149;28;20178;-66
2021/12/06 06:33:53;;;;;;;28.83;16.23;;;2.10;99.90;;;;;;5097001;28;20205;-70
2021/12/06 06:36:19;;;;;;;26.57;15.27;;;2.20;99.90;;;;;;5097822;28;20269;-65
2021/12/06 06:38:45;;;;;;;28.63;15.07;;;2.20;99.90;;;;;;5096483;28;20202;-65
2021/12/06 06:41:10;;;;;;;26.90;15.07;;;2.20;99.90;;;;;;5101890;28;20221;-66
2021/12/06 06:43:37;;;;;;;39.47;17.03;;;2.30;99.90;;;;;;5101195;28;20182;-66
2021/12/06 06:46:04;;;;;;;26.63;15.13;;;2.20;99.90;;;;;;5101757;28;20261;-66
2021/12/06 06:48:30;;;;;;;28.07;15.83;;;2.30;99.90;;;;;;5100593;28;20188;-64
2021/12/06 06:50:56;;;;;;;28.23;16.13;;;2.20;99.90;;;;;;5092850;28;20257;-65
2021/12/06 06:53:22;;;;;;;33.50;16.30;;;2.20;99.90;;;;;;5099004;28;20190;-64
2021/12/06 06:55:47;;;;;;;26.83;15.53;;;2.20;99.90;;;;;;5097556;28;20977;-67
2021/12/06 06:58:13;;;;;;;29.90;16.87;;;2.20;99.90;;;;;;5084443;28;20215;-66
2021/12/06 07:00:39;;;;;;;30.83;15.80;;;2.30;99.90;;;;;;5094470;28;20194;-64
2021/12/06 07:03:07;;;;;;;32.43;17.17;;;2.30;99.90;;;;;;5093216;28;20242;-64
2021/12/06 07:05:33;;;;;;;31.53;16.73;;;2.20;99.90;;;;;;5094950;28;20554;-65
2021/12/06 07:07:59;;;;;;;30.27;16.40;;;2.20;99.90;;;;;;5100274;28;20185;-66
2021/12/06 07:10:25;;;;;;;29.20;16.80;;;2.20;99.90;;;;;;5098214;28;20182;-64
2021/12/06 07:12:52;;;;;;;26.63;15.50;;;2.20;99.90;;;;;;5095926;28;20174;-65
2021/12/06 07:15:23;;;;;;;26.47;15.07;;;2.20;99.90;;;;;;5099706;28;20638;-65
2021/12/06 07:17:51;;;;;;;27.60;14.33;;;2.30;99.90;;;;;;5098731;28;20186;-66
2021/12/06 07:20:17;;;;;;;26.70;15.50;;;2.30;99.90;;;;;;5097052;28;20230;-66
2021/12/06 07:22:44;;;;;;;30.13;14.80;;;2.20;99.90;;;;;;5098054;28;20174;-65
2021/12/06 07:25:11;;;;;;;32.67;15.53;;;2.10;99.90;;;;;;5098654;28;20205;-69
2021/12/06 07:27:36;;;;;;;30.10;15.77;;;2.20;99.90;;;;;;5098548;28;20638;-63
2021/12/06 07:30:04;;;;;;;24.53;14.60;;;2.20;99.90;;;;;;5098153;28;20206;-70
2021/12/06 07:32:29;;;;;;;27.47;13.77;;;2.20;99.90;;;;;;5095135;28;20194;-66
2021/12/06 07:34:55;;;;;;;30.90;14.17;;;2.20;99.90;;;;;;5100030;28;20233;-63
2021/12/06 07:37:21;;;;;;;31.13;14.47;;;2.10;99.90;;;;;;5096091;28;20175;-64
2021/12/06 07:39:47;;;;;;;25.80;13.73;;;2.10;99.90;;;;;;5094489;28;20262;-63
2021/12/06 07:42:13;;;;;;;29.37;13.40;;;2.20;99.90;;;;;;5078865;28;20179;-65
2021/12/06 07:44:40;;;;;;;23.30;13.60;;;2.10;99.90;;;;;;5096767;28;20279;-64
2021/12/06 07:47:07;;;;;;;20.77;11.40;;;2.10;99.90;;;;;;5078711;28;20194;-63
2021/12/06 07:49:33;;;;;;;22.40;12.37;;;2.10;99.90;;;;;;5095246;28;20235;-67
2021/12/06 07:51:59;;;;;;;21.87;12.93;;;2.10;99.90;;;;;;5095858;28;20326;-63
2021/12/06 07:54:25;;;;;;;21.87;11.60;;;2.10;99.90;;;;;;5097927;28;20186;-63
2021/12/06 07:56:51;;;;;;;23.47;12.23;;;2.10;99.90;;;;;;5090235;28;20219;-65
2021/12/06 07:59:16;;;;;;;25.87;13.03;;;2.20;99.90;;;;;;5091536;28;20540;-63
2021/12/06 08:01:42;;;;;;;22.37;12.93;;;2.20;99.90;;;;;;5086044;28;20191;-64
2021/12/06 08:04:08;;;;;;;19.93;11.17;;;2.30;99.90;;;;;;5088053;28;20259;-64
2021/12/06 08:06:34;;;;;;;23.53;13.23;;;2.20;99.90;;;;;;5086594;28;20255;-65
2021/12/06 08:09:00;;;;;;;26.47;15.33;;;2.20;99.90;;;;;;5094843;28;20184;-64
2021/12/06 08:11:26;;;;;;;24.00;13.53;;;2.30;99.90;;;;;;5103125;28;20206;-64
2021/12/06 08:13:56;;;;;;;21.03;12.43;;;2.20;99.90;;;;;;5093930;28;20291;-64
2021/12/06 08:16:39;;;;;;;22.13;12.77;;;2.30;99.90;;;;;;5100114;28;20197;-63
2021/12/06 08:19:05;;;;;;;20.03;12.30;;;2.30;99.90;;;;;;5097214;28;20190;-64
2021/12/06 08:21:31;;;;;;;26.50;13.10;;;2.30;99.90;;;;;;5093200;28;20220;-64
2021/12/06 08:23:58;;;;;;;20.07;12.13;;;2.30;99.90;;;;;;5098759;28;20202;-64
2021/12/06 08:26:27;;;;;;;21.70;12.53;;;2.20;99.90;;;;;;5092227;28;20210;-63
2021/12/06 08:28:54;;;;;;;21.43;12.70;;;2.20;99.90;;;;;;5097819;28;20198;-63
2021/12/06 08:31:22;;;;;;;23.00;13.40;;;2.20;99.90;;;;;;5096927;28;20184;-65
2021/12/06 08:33:49;;;;;;;28.60;16.70;;;2.20;99.90;;;;;;5098556;28;20186;-68
2021/12/06 08:36:15;;;;;;;25.10;15.23;;;2.20;99.90;;;;;;5073987;28;20175;-65
2021/12/06 08:38:41;;;;;;;25.70;14.20;;;2.20;99.90;;;;;;5081588;28;20309;-69
2021/12/06 08:41:12;;;;;;;30.20;16.40;;;2.10;99.90;;;;;;5076945;28;20270;-64
2021/12/06 08:43:40;;;;;;;24.70;14.63;;;2.30;99.90;;;;;;5084198;28;20191;-64
2021/12/06 08:46:09;;;;;;;28.97;16.53;;;2.10;99.90;;;;;;5079611;28;20221;-64
2021/12/06 08:48:37;;;;;;;25.83;14.27;;;2.30;99.90;;;;;;5077179;28;20195;-63
2021/12/06 08:51:07;;;;;;;27.10;15.20;;;2.30;99.90;;;;;;5080941;28;20547;-65
2021/12/06 08:53:33;;;;;;;26.33;15.53;;;2.40;99.90;;;;;;5080933;28;20206;-64
2021/12/06 08:55:59;;;;;;;24.20;14.47;;;2.50;99.90;;;;;;5075571;28;20248;-63
2021/12/06 08:58:25;;;;;;;24.57;14.77;;;2.50;99.90;;;;;;5079479;28;20314;-64
2021/12/06 09:00:52;;;;;;;27.73;14.33;;;2.60;99.90;;;;;;5080844;28;20202;-64
2021/12/06 09:03:17;;;;;;;23.20;13.97;;;2.60;99.90;;;;;;5078564;28;20655;-65
2021/12/06 09:05:47;;;;;;;28.27;14.97;;;2.70;99.90;;;;;;5079759;28;20199;-65
2021/12/06 09:08:14;;;;;;;27.90;14.67;;;2.60;99.90;;;;;;5079603;28;20196;-66
2021/12/06 09:10:40;;;;;;;24.20;14.50;;;2.80;99.90;;;;;;5080914;28;20749;-64
2021/12/06 09:13:06;;;;;;;33.70;15.50;;;2.70;99.90;;;;;;5078308;28;20504;-65
2021/12/06 09:15:32;;;;;;;23.60;12.90;;;2.90;99.90;;;;;;5079858;28;20533;-64
2021/12/06 09:17:59;;;;;;;33.77;16.30;;;2.90;99.90;;;;;;5076800;28;20180;-66
2021/12/06 09:20:32;;;;;;;30.37;15.13;;;2.90;99.90;;;;;;5075891;28;20184;-65
2021/12/06 09:22:59;;;;;;;31.77;14.50;;;2.90;99.90;;;;;;5069154;28;20199;-65
2021/12/06 09:25:27;;;;;;;23.87;12.73;;;2.90;99.90;;;;;;5078271;28;20275;-64
2021/12/06 09:27:52;;;;;;;33.40;16.90;;;2.90;99.90;;;;;;5075770;28;20196;-64
2021/12/06 09:30:22;;;;;;;36.13;16.50;;;3.00;99.90;;;;;;5061121;28;20539;-64
2021/12/06 09:32:48;;;;;;;31.13;16.07;;;2.90;99.90;;;;;;5085316;28;20264;-66
2021/12/06 09:35:20;;;;;;;34.13;17.57;;;2.90;99.90;;;;;;5073712;28;20257;-65
2021/12/06 09:37:46;;;;;;;30.10;16.40;;;2.80;99.90;;;;;;5099456;28;20623;-65
2021/12/06 09:40:15;;;;;;;35.83;17.43;;;3.00;99.90;;;;;;5092880;28;20183;-64
2021/12/06 09:42:43;;;;;;;32.50;16.67;;;2.80;99.90;;;;;;5092015;28;20677;-66
2021/12/06 09:45:13;;;;;;;34.87;17.47;;;2.90;99.90;;;;;;5096621;28;20210;-65
2021/12/06 09:47:40;;;;;;;31.43;16.67;;;2.80;99.90;;;;;;5089042;28;20661;-65
2021/12/06 09:50:07;;;;;;;33.00;18.27;;;2.70;99.90;;;;;;5080877;28;20518;-66
2021/12/06 09:52:33;;;;;;;34.97;18.53;;;2.60;99.90;;;;;;5098867;28;20716;-66
2021/12/06 09:54:59;;;;;;;31.10;16.73;;;2.80;99.90;;;;;;5096962;28;20186;-67
2021/12/06 09:57:25;;;;;;;35.77;17.53;;;2.80;99.90;;;;;;5096307;28;20508;-65
2021/12/06 09:59:51;;;;;;;33.80;17.30;;;2.80;99.90;;;;;;5093309;28;20232;-65
2021/12/06 10:02:19;;;;;;;33.37;16.60;;;2.70;99.90;;;;;;5100169;28;20193;-64
2021/12/06 10:04:54;;;;;;;36.30;17.23;;;2.80;99.90;;;;;;5087267;28;20258;-67
2021/12/06 10:07:21;;;;;;;32.13;17.63;;;2.70;99.90;;;;;;5102350;28;20182;-65
2021/12/06 10:09:49;;;;;;;31.83;16.10;;;2.60;99.90;;;;;;5093093;28;20186;-64
2021/12/06 10:12:18;;;;;;;37.20;19.00;;;2.60;99.90;;;;;;5084105;28;20183;-65
2021/12/06 10:14:45;;;;;;;35.53;18.67;;;2.60;99.90;;;;;;5089863;28;20564;-64
2021/12/06 10:17:15;;;;;;;35.83;17.57;;;2.50;99.90;;;;;;5100123;28;20288;-64
2021/12/06 10:19:42;;;;;;;36.73;19.33;;;2.40;99.90;;;;;;5098795;28;20557;-66
2021/12/06 10:22:08;;;;;;;36.77;18.27;;;2.50;99.90;;;;;;5095200;28;20197;-65
2021/12/06 10:24:36;;;;;;;38.40;19.37;;;2.60;99.90;;;;;;5102207;28;20183;-68
2021/12/06 10:27:21;;;;;;;35.20;17.93;;;2.70;99.90;;;;;;5098278;28;20221;-64
2021/12/06 10:29:54;;;;;;;31.50;17.60;;;2.60;99.90;;;;;;5096391;28;20190;-65
2021/12/06 10:32:31;;;;;;;34.40;18.57;;;2.60;99.90;;;;;;5098274;28;20475;-64
2021/12/06 10:35:10;;;;;;;32.07;17.13;;;2.60;99.90;;;;;;5093098;27;20227;-68
2021/12/06 10:37:48;;;;;;;38.43;18.17;;;2.60;99.90;;;;;;5097602;28;20178;-65
2021/12/06 10:40:36;;;;;;;34.87;18.50;;;2.70;99.90;;;;;;5094811;28;20249;-65
2021/12/06 10:43:10;;;;;;;34.10;18.10;;;2.50;99.90;;;;;;5083046;28;20638;-64
2021/12/06 10:45:47;;;;;;;31.00;18.07;;;2.50;99.90;;;;;;5113364;28;20193;-65
2021/12/06 10:48:17;;;;;;;33.97;16.97;;;2.40;99.90;;;;;;5096190;28;20315;-65
2021/12/06 10:50:51;;;;;;;38.07;18.67;;;2.40;99.90;;;;;;5080264;28;20256;-65
2021/12/06 10:53:20;;;;;;;36.10;18.93;;;2.50;99.90;;;;;;5084667;28;20194;-67
2021/12/06 10:55:48;;;;;;;35.23;18.00;;;2.40;99.90;;;;;;5082112;28;20251;-69
2021/12/06 10:58:17;;;;;;;33.10;18.40;;;2.40;99.90;;;;;;5096761;28;20179;-64
2021/12/06 11:00:45;;;;;;;34.90;18.27;;;2.50;99.90;;;;;;5093420;28;20668;-65
2021/12/06 11:03:34;;;;;;;34.20;17.37;;;2.40;99.90;;;;;;5095904;28;20174;-67
2021/12/06 11:06:10;;;;;;;34.10;18.43;;;2.40;99.90;;;;;;5085210;28;20551;-65
2021/12/06 11:08:37;;;;;;;32.63;18.00;;;2.50;99.90;;;;;;5097023;28;20269;-65
2021/12/06 11:11:27;;;;;;;32.07;17.77;;;2.40;99.90;;;;;;5092249;28;20179;-67
2021/12/06 11:14:00;;;;;;;32.43;18.77;;;2.40;99.90;;;;;;5093861;28;20179;-65
2021/12/06 11:16:38;;;;;;;34.20;17.83;;;2.50;99.90;;;;;;5099339;28;20180;-69
2021/12/06 11:19:14;;;;;;;33.77;17.63;;;2.50;99.90;;;;;;5070539;28;20236;-74
2021/12/06 11:21:42;;;;;;;33.87;18.67;;;2.40;99.90;;;;;;5089915;28;20552;-64
2021/12/06 11:24:18;;;;;;;33.20;17.67;;;2.50;99.90;;;;;;5092016;28;20187;-65
2021/12/06 11:26:53;;;;;;;33.17;17.97;;;2.50;99.90;;;;;;5084175;28;20268;-64
2021/12/06 11:29:23;;;;;;;29.63;16.47;;;2.50;99.90;;;;;;5098534;28;20714;-64
2021/12/06 11:31:56;;;;;;;30.47;15.97;;;2.50;99.90;;;;;;5097946;28;20256;-65
2021/12/06 11:34:27;;;;;;;29.10;16.00;;;2.40;99.90;;;;;;5099803;28;20233;-64
2021/12/06 11:36:53;;;;;;;34.00;17.13;;;2.40;99.90;;;;;;5098978;28;20189;-64
2021/12/06 11:39:21;;;;;;;29.60;16.87;;;2.30;99.90;;;;;;5096692;28;20170;-64
2021/12/06 11:41:50;;;;;;;33.37;17.00;;;2.40;99.90;;;;;;5097350;28;20265;-67
2021/12/06 11:44:19;;;;;;;31.77;16.10;;;2.30;99.90;;;;;;5093414;28;20174;-63
2021/12/06 11:46:45;;;;;;;36.40;17.20;;;2.40;99.90;;;;;;5097652;28;20198;-66
2021/12/06 11:49:16;;;;;;;30.63;17.03;;;2.50;99.90;;;;;;5096087;28;20178;-65
2021/12/06 11:51:42;;;;;;;35.10;18.00;;;2.40;99.90;;;;;;5081476;28;20525;-66
2021/12/06 11:54:09;;;;;;;32.70;17.53;;;2.30;99.90;;;;;;5097404;28;20196;-65
2021/12/06 11:56:42;;;;;;;26.03;16.53;;;2.40;99.90;;;;;;5093109;28;20179;-65
2021/12/06 11:59:09;;;;;;;30.93;16.47;;;2.40;99.90;;;;;;5097540;28;20269;-68
2021/12/06 12:01:41;;;;;;;31.07;16.93;;;2.40;99.90;;;;;;5098374;28;20643;-65
2021/12/06 12:04:09;;;;;;;30.20;17.57;;;2.30;99.90;;;;;;5099329;28;20202;-65
2021/12/06 12:06:40;;;;;;;34.87;17.50;;;2.10;99.90;;;;;;5103932;28;20216;-65
2021/12/06 12:09:17;;;;;;;32.00;16.57;;;2.20;99.90;;;;;;5105857;28;20226;-64
2021/12/06 12:11:58;;;;;;;31.57;16.33;;;2.40;99.90;;;;;;5095814;28;20769;-67
2021/12/06 12:14:38;;;;;;;29.30;16.93;;;2.30;99.90;;;;;;5103865;28;20189;-65
2021/12/06 12:17:24;;;;;;;31.67;16.77;;;2.20;99.90;;;;;;5104150;28;20252;-65
2021/12/06 12:19:53;;;;;;;30.33;16.43;;;2.10;99.90;;;;;;5083652;28;20187;-67
2021/12/06 12:22:20;;;;;;;34.40;19.03;;;2.20;99.90;;;;;;5095994;28;20175;-65
2021/12/06 12:24:50;;;;;;;28.70;16.73;;;2.20;99.90;;;;;;5104068;28;20215;-65
2021/12/06 12:27:32;;;;;;;29.93;17.70;;;2.30;99.90;;;;;;5098640;28;20529;-67
2021/12/06 12:30:00;;;;;;;32.53;15.97;;;2.30;99.90;;;;;;5094782;28;20223;-66
2021/12/06 12:32:27;;;;;;;31.83;17.37;;;2.20;99.90;;;;;;5097941;28;22533;-66
2021/12/06 12:34:55;;;;;;;30.87;16.30;;;2.20;99.90;;;;;;5096069;28;20317;-64
2021/12/06 12:37:22;;;;;;;27.97;16.13;;;2.30;99.90;;;;;;5101108;28;20261;-68
2021/12/06 12:40:08;;;;;;;32.47;16.63;;;2.20;99.90;;;;;;5096934;28;20190;-70
2021/12/06 12:42:34;;;;;;;32.53;17.00;;;2.40;99.90;;;;;;5102475;28;20657;-68
2021/12/06 12:45:03;;;;;;;108.80;35.00;;;2.30;99.90;;;;;;5100567;28;20197;-65
2021/12/06 12:47:35;;;;;;;28.33;15.83;;;2.30;99.90;;;;;;5064147;28;20197;-64
2021/12/06 12:50:14;;;;;;;29.73;14.77;;;2.10;99.90;;;;;;5096065;28;20211;-65
2021/12/06 12:52:49;;;;;;;33.73;16.63;;;2.30;99.90;;;;;;5112237;28;20173;-65
2021/12/06 12:55:30;;;;;;;26.10;15.53;;;2.30;99.90;;;;;;5114439;28;20178;-65